Time;durP1;ratioP1;P1;durP2;ratioP2;P2;SDS_P1;SDS_P2;PMS_P1;PMS_P2;Temp;Humidity;BMP_temperature;BMP_pressure;BME280_temperature;BME280_humidity;BME280_pressure;Samples;Min_cycle;Max_cycle;Signal;HPM_P1;HPM_P2
2022/05/26 00:02:49;;;;;;;0.35;0.35;;;21.30;53.50;;;;;;6267227;28;20108;-71
2022/05/26 00:05:50;;;;;;;0.35;0.22;;;21.30;53.50;;;;;;6269210;28;20553;-69
2022/05/26 00:08:52;;;;;;;0.20;0.20;;;21.30;53.50;;;;;;6268108;28;20024;-70
2022/05/26 00:11:52;;;;;;;0.30;0.30;;;21.30;53.40;;;;;;6267778;28;20565;-69
2022/05/26 00:14:53;;;;;;;0.30;0.30;;;21.30;53.50;;;;;;6269643;28;20025;-69
2022/05/26 00:17:54;;;;;;;0.30;0.30;;;21.30;53.50;;;;;;6268963;28;20525;-69
2022/05/26 00:20:54;;;;;;;0.20;0.20;;;21.30;53.50;;;;;;6267564;28;20063;-69
2022/05/26 00:23:56;;;;;;;0.43;0.20;;;21.30;53.50;;;;;;6268841;28;20017;-70
2022/05/26 00:26:56;;;;;;;0.40;0.20;;;21.30;53.60;;;;;;6269061;28;20422;-68
2022/05/26 00:29:57;;;;;;;0.20;0.20;;;21.30;53.50;;;;;;6268907;28;20048;-69
2022/05/26 00:32:57;;;;;;;0.30;0.30;;;21.30;53.40;;;;;;6268554;28;20075;-69
2022/05/26 00:36:11;;;;;;;0.30;0.30;;;21.30;53.50;;;;;;6267633;28;20025;-69
2022/05/26 00:39:16;;;;;;;0.30;0.22;;;21.30;53.50;;;;;;6268917;28;20484;-69
2022/05/26 00:42:17;;;;;;;0.20;0.20;;;21.30;53.50;;;;;;6268688;28;20595;-69
2022/05/26 00:45:17;;;;;;;0.30;0.30;;;21.30;54.20;;;;;;6268593;28;20043;-69
2022/05/26 00:48:22;;;;;;;0.40;0.35;;;21.30;54.20;;;;;;6267424;28;20071;-69
2022/05/26 00:51:28;;;;;;;0.10;0.10;;;21.30;53.50;;;;;;6268372;28;20486;-70
2022/05/26 00:54:29;;;;;;;0.32;0.30;;;21.30;53.50;;;;;;6268391;28;20033;-69
2022/05/26 00:57:36;;;;;;;0.20;0.20;;;21.30;53.50;;;;;;6268561;28;20113;-69
2022/05/26 01:00:38;;;;;;;0.30;0.30;;;21.30;53.50;;;;;;6268196;28;20021;-68
2022/05/26 01:03:55;;;;;;;0.30;0.20;;;21.30;53.50;;;;;;6268380;28;20087;-69
2022/05/26 01:07:18;;;;;;;0.30;0.30;;;21.30;53.50;;;;;;6268293;28;20397;-68
2022/05/26 01:10:19;;;;;;;0.22;0.22;;;21.30;53.50;;;;;;6267848;28;20033;-69
2022/05/26 01:13:21;;;;;;;0.30;0.30;;;21.30;53.50;;;;;;6269110;28;20496;-69
2022/05/26 01:16:46;;;;;;;0.20;0.20;;;21.30;53.50;;;;;;6273267;28;20082;-69
2022/05/26 01:20:02;;;;;;;0.20;0.20;;;21.30;53.50;;;;;;6272967;28;20100;-69
2022/05/26 01:23:39;;;;;;;0.30;0.30;;;21.30;53.50;;;;;;6272854;28;20096;-70
2022/05/26 01:27:00;;;;;;;0.30;0.20;;;21.30;53.50;;;;;;6273422;28;20041;-69
2022/05/26 01:30:11;;;;;;;0.30;0.30;;;21.30;53.50;;;;;;6272896;28;20536;-69
2022/05/26 01:33:28;;;;;;;0.32;0.25;;;21.30;53.50;;;;;;6272588;28;20024;-69
2022/05/26 01:36:39;;;;;;;0.30;0.30;;;21.30;53.50;;;;;;6271568;28;20628;-69
2022/05/26 01:40:12;;;;;;;0.20;0.20;;;21.30;53.50;;;;;;6272701;28;20533;-69
2022/05/26 01:43:46;;;;;;;0.32;0.32;;;21.30;53.50;;;;;;6272401;28;20496;-69
2022/05/26 01:46:47;;;;;;;0.63;0.30;;;21.30;53.50;;;;;;6272265;28;20044;-69
2022/05/26 01:50:01;;;;;;;0.20;0.20;;;21.30;53.50;;;;;;6272434;28;20624;-71
2022/05/26 01:53:08;;;;;;;0.20;0.20;;;21.30;53.50;;;;;;6271596;28;20036;-69
2022/05/26 01:56:24;;;;;;;0.38;0.28;;;21.30;53.50;;;;;;6271202;28;20021;-70
2022/05/26 01:59:34;;;;;;;0.22;0.22;;;21.30;53.50;;;;;;6272716;28;20021;-69
2022/05/26 02:02:40;;;;;;;0.63;0.40;;;21.30;53.50;;;;;;6272226;28;20024;-69
2022/05/26 02:06:01;;;;;;;0.20;0.20;;;21.30;53.50;;;;;;6272165;28;20031;-69
2022/05/26 02:09:07;;;;;;;0.20;0.20;;;21.30;53.50;;;;;;6271113;28;20028;-69
2022/05/26 02:12:16;;;;;;;0.30;0.30;;;21.30;53.50;;;;;;6271969;28;20037;-69
2022/05/26 02:15:30;;;;;;;0.20;0.20;;;21.30;53.50;;;;;;6270612;28;20112;-69
2022/05/26 02:18:37;;;;;;;0.38;0.38;;;21.30;53.60;;;;;;6271937;28;20029;-71
2022/05/26 02:21:46;;;;;;;0.20;0.20;;;21.30;53.50;;;;;;6272159;28;20242;-69
2022/05/26 02:24:55;;;;;;;0.30;0.30;;;21.30;53.50;;;;;;6271184;28;20573;-69
2022/05/26 02:27:57;;;;;;;0.20;0.20;;;21.30;53.50;;;;;;6271840;28;20028;-69
2022/05/26 02:30:58;;;;;;;0.28;0.20;;;21.30;53.50;;;;;;6271219;28;20486;-69
2022/05/26 02:34:02;;;;;;;0.20;0.20;;;21.30;53.60;;;;;;6271693;28;20040;-69
2022/05/26 02:37:04;;;;;;;0.20;0.20;;;21.30;53.50;;;;;;6271331;28;20025;-69
2022/05/26 02:40:09;;;;;;;0.38;0.25;;;21.30;53.50;;;;;;6271579;28;20045;-69
2022/05/26 02:43:18;;;;;;;0.40;0.20;;;21.30;53.50;;;;;;6271242;28;20669;-69
2022/05/26 02:46:55;;;;;;;0.30;0.20;;;21.30;53.50;;;;;;6271088;28;20036;-69
2022/05/26 02:50:15;;;;;;;0.22;0.22;;;21.30;53.50;;;;;;6246581;28;20029;-70
2022/05/26 02:53:24;;;;;;;0.30;0.30;;;21.30;53.60;;;;;;6259731;28;20450;-69
2022/05/26 02:56:52;;;;;;;0.60;0.40;;;21.30;53.60;;;;;;6269722;28;20025;-69
2022/05/26 03:00:05;;;;;;;0.20;0.20;;;21.30;53.60;;;;;;6271084;28;20028;-69
2022/05/26 03:03:15;;;;;;;0.30;0.30;;;21.30;53.50;;;;;;6270547;28;20033;-69
2022/05/26 03:06:33;;;;;;;0.30;0.30;;;21.30;53.60;;;;;;6270901;28;20067;-69
2022/05/26 03:09:37;;;;;;;0.30;0.30;;;21.30;53.50;;;;;;6270974;28;20029;-69
2022/05/26 03:12:37;;;;;;;0.32;0.30;;;21.30;53.60;;;;;;6270545;28;20379;-69
2022/05/26 03:15:40;;;;;;;0.20;0.20;;;21.30;53.60;;;;;;6270529;28;20057;-69
2022/05/26 03:18:41;;;;;;;0.28;0.28;;;21.30;53.50;;;;;;6270429;28;20017;-69
2022/05/26 03:21:42;;;;;;;0.45;0.30;;;21.30;53.60;;;;;;6269160;28;20029;-69
2022/05/26 03:24:43;;;;;;;0.20;0.20;;;21.30;53.60;;;;;;6268939;28;20021;-69
2022/05/26 03:27:43;;;;;;;0.30;0.22;;;21.30;53.60;;;;;;6270345;28;20028;-69
2022/05/26 03:30:44;;;;;;;0.38;0.30;;;21.30;53.60;;;;;;6270003;28;20096;-69
2022/05/26 03:43:46;;;;;;;0.10;0.10;;;21.30;53.60;;;;;;6269832;28;20041;-69
2022/05/26 03:46:49;;;;;;;0.30;0.30;;;21.30;53.60;;;;;;6268573;28;20048;-69
2022/05/26 03:49:50;;;;;;;0.20;0.20;;;21.20;53.50;;;;;;6269880;28;20031;-71
2022/05/26 03:52:51;;;;;;;0.20;0.13;;;21.30;53.60;;;;;;6269586;28;20068;-69
2022/05/26 03:55:52;;;;;;;0.35;0.25;;;21.30;53.60;;;;;;6269632;28;20017;-68
2022/05/26 03:58:53;;;;;;;0.20;0.20;;;21.30;53.60;;;;;;6269504;28;20033;-69
2022/05/26 04:01:54;;;;;;;0.17;0.17;;;21.30;53.60;;;;;;6267975;28;20021;-69
2022/05/26 04:04:56;;;;;;;0.40;0.30;;;21.30;54.30;;;;;;6269521;28;20025;-69
2022/05/26 04:07:57;;;;;;;0.30;0.30;;;21.30;53.60;;;;;;6269512;28;20021;-69
2022/05/26 04:11:00;;;;;;;0.20;0.20;;;21.30;53.60;;;;;;6269421;28;20021;-69
2022/05/26 04:14:01;;;;;;;0.50;0.30;;;21.30;53.60;;;;;;6269262;28;20025;-69
2022/05/26 04:17:02;;;;;;;0.20;0.20;;;21.30;53.60;;;;;;6267993;28;20621;-69
2022/05/26 04:20:05;;;;;;;0.17;0.17;;;21.30;53.60;;;;;;6268991;28;20083;-69
2022/05/26 04:23:05;;;;;;;0.30;0.30;;;21.30;53.60;;;;;;6269056;28;20025;-69
2022/05/26 04:26:08;;;;;;;0.20;0.20;;;21.30;53.60;;;;;;6268603;28;20048;-69
2022/05/26 04:29:15;;;;;;;0.55;0.30;;;21.30;53.60;;;;;;6268890;28;20991;-69
2022/05/26 04:32:16;;;;;;;0.22;0.22;;;21.30;53.60;;;;;;6269085;28;20025;-69
2022/05/26 04:35:17;;;;;;;0.28;0.28;;;21.30;53.60;;;;;;6268063;28;20028;-69
2022/05/26 04:38:18;;;;;;;0.30;0.28;;;21.20;53.50;;;;;;6268705;28;20071;-69
2022/05/26 04:41:20;;;;;;;0.38;0.20;;;21.30;53.60;;;;;;6267255;28;20697;-70
2022/05/26 04:44:21;;;;;;;0.20;0.20;;;21.30;53.60;;;;;;6268674;28;20032;-69
2022/05/26 04:47:21;;;;;;;0.20;0.20;;;21.30;53.60;;;;;;6267364;28;20025;-70
2022/05/26 04:50:22;;;;;;;0.15;0.15;;;21.30;53.60;;;;;;6267951;28;20025;-70
2022/05/26 04:53:23;;;;;;;0.20;0.20;;;21.30;53.60;;;;;;6267426;28;20529;-69
2022/05/26 04:56:24;;;;;;;0.20;0.20;;;21.30;53.70;;;;;;6261502;28;20032;-70
2022/05/26 05:03:21;;;;;;;0.10;0.10;;;21.30;53.60;;;;;;6241923;28;20711;-69
2022/05/26 05:06:22;;;;;;;0.20;0.20;;;21.30;53.70;;;;;;6240740;28;20076;-68
2022/05/26 05:09:24;;;;;;;0.30;0.10;;;21.30;53.60;;;;;;6241747;28;20388;-69
2022/05/26 05:12:26;;;;;;;0.30;0.30;;;21.30;53.60;;;;;;6265998;28;20033;-70
2022/05/26 05:15:44;;;;;;;0.30;0.20;;;21.30;53.70;;;;;;6266645;28;20320;-72
2022/05/26 05:18:45;;;;;;;0.20;0.20;;;21.30;53.60;;;;;;6266277;28;20090;-74
2022/05/26 05:22:08;;;;;;;0.30;0.30;;;21.30;53.60;;;;;;6266629;28;20021;-71
2022/05/26 05:25:21;;;;;;;0.17;0.17;;;21.30;53.90;;;;;;6267812;28;20045;-72
2022/05/26 05:28:33;;;;;;;0.40;0.30;;;21.30;53.80;;;;;;6264792;28;20029;-71
2022/05/26 05:31:46;;;;;;;0.47;0.17;;;21.30;53.80;;;;;;6265002;28;20025;-72
2022/05/26 05:34:52;;;;;;;0.20;0.20;;;21.30;53.70;;;;;;6266681;28;20049;-72
2022/05/26 05:37:53;;;;;;;0.57;0.20;;;21.30;53.80;;;;;;6266924;28;20078;-72
2022/05/26 05:40:54;;;;;;;1.65;0.25;;;21.30;53.70;;;;;;6266559;28;20080;-72
2022/05/26 05:43:56;;;;;;;0.35;0.22;;;21.30;53.70;;;;;;6266492;28;20025;-71
2022/05/26 05:47:01;;;;;;;0.80;0.13;;;21.30;53.80;;;;;;6259419;28;20123;-71
2022/05/26 05:50:02;;;;;;;;;;;21.30;54.00;;;;;;6252410;28;20029;-72
2022/05/26 05:53:03;;;;;;;0.70;0.32;;;21.40;54.40;;;;;;6254862;28;19905;-72
2022/05/26 05:56:06;;;;;;;0.20;0.20;;;21.40;54.40;;;;;;6261468;28;20041;-70
2022/05/26 05:59:07;;;;;;;0.80;0.32;;;21.30;54.10;;;;;;6247992;28;20037;-70
2022/05/26 06:02:08;;;;;;;0.30;0.30;;;21.30;54.10;;;;;;6250160;28;20029;-71
2022/05/26 06:05:10;;;;;;;2.45;0.28;;;21.40;54.20;;;;;;6249813;28;20079;-67
2022/05/26 06:08:11;;;;;;;0.77;0.32;;;21.40;54.10;;;;;;6248526;28;20025;-67
2022/05/26 06:11:11;;;;;;;0.50;0.50;;;21.40;54.10;;;;;;6270202;28;20025;-66
2022/05/26 06:14:12;;;;;;;5.82;0.32;;;21.30;54.00;;;;;;6273007;28;20025;-66
2022/05/26 06:17:13;;;;;;;0.98;0.30;;;21.40;54.10;;;;;;6274031;28;20095;-66
2022/05/26 06:20:14;;;;;;;1.35;0.30;;;21.30;53.90;;;;;;6273526;28;20025;-67
2022/05/26 06:23:17;;;;;;;0.70;0.40;;;21.30;53.90;;;;;;6272253;28;20029;-67
2022/05/26 06:26:18;;;;;;;0.32;0.30;;;21.30;53.90;;;;;;6273304;28;20500;-66
2022/05/26 06:39:30;;;;;;;0.30;0.30;;;21.30;53.90;;;;;;6273081;28;20025;-67
2022/05/26 06:42:31;;;;;;;0.20;0.20;;;21.30;53.90;;;;;;6273140;28;20444;-66
2022/05/26 06:45:31;;;;;;;0.65;0.40;;;21.30;53.80;;;;;;6272876;28;20021;-66
2022/05/26 06:48:32;;;;;;;1.20;0.40;;;21.30;53.90;;;;;;6271751;28;20028;-66
2022/05/26 06:51:36;;;;;;;0.45;0.30;;;21.30;53.90;;;;;;6271433;28;20037;-66
2022/05/26 06:54:39;;;;;;;0.77;0.40;;;21.30;53.80;;;;;;6247029;28;20481;-66
2022/05/26 06:57:40;;;;;;;0.35;0.35;;;21.30;53.90;;;;;;6246730;28;20445;-66
2022/05/26 07:00:42;;;;;;;0.30;0.30;;;21.30;53.90;;;;;;6247908;28;20040;-67
2022/05/26 07:03:43;;;;;;;1.65;0.40;;;21.30;53.90;;;;;;6247832;28;20017;-66
2022/05/26 07:06:51;;;;;;;1.05;0.40;;;21.30;53.80;;;;;;6247689;28;20025;-66
2022/05/26 07:09:55;;;;;;;0.30;0.30;;;21.30;53.80;;;;;;6246930;28;20021;-66
2022/05/26 07:12:56;;;;;;;0.63;0.43;;;21.30;53.90;;;;;;6247143;28;20049;-67
2022/05/26 07:15:56;;;;;;;1.33;0.40;;;21.30;53.80;;;;;;6247753;28;20021;-67
2022/05/26 07:18:57;;;;;;;1.23;0.25;;;21.30;53.90;;;;;;6246060;28;20475;-67
2022/05/26 07:21:57;;;;;;;0.65;0.40;;;21.30;53.90;;;;;;6247489;28;20034;-66
2022/05/26 07:24:58;;;;;;;0.20;0.20;;;21.30;53.90;;;;;;6245948;28;20044;-67
2022/05/26 07:27:59;;;;;;;0.63;0.43;;;21.30;53.80;;;;;;6246139;28;20025;-66
2022/05/26 07:30:59;;;;;;;0.57;0.30;;;21.30;53.90;;;;;;6254159;28;20060;-67
2022/05/26 07:34:01;;;;;;;0.35;0.32;;;21.30;53.90;;;;;;6271738;28;20400;-67
2022/05/26 07:43:40;;;;;;;2.13;0.50;;;21.30;53.80;;;;;;6271502;28;20053;-66
2022/05/26 07:46:41;;;;;;;0.68;0.28;;;21.30;53.90;;;;;;6271487;28;20146;-67
2022/05/26 07:49:44;;;;;;;0.30;0.30;;;21.30;53.90;;;;;;6270151;28;20458;-67
2022/05/26 07:52:45;;;;;;;0.40;0.40;;;21.30;53.90;;;;;;6269903;28;20029;-66
2022/05/26 07:55:46;;;;;;;0.40;0.35;;;21.30;53.90;;;;;;6271350;28;20024;-66
2022/05/26 07:58:49;;;;;;;0.40;0.20;;;21.30;53.80;;;;;;6271025;28;20025;-66
2022/05/26 08:01:50;;;;;;;0.57;0.38;;;21.30;53.90;;;;;;6271082;28;20052;-66
2022/05/26 08:04:51;;;;;;;0.40;0.40;;;21.30;53.90;;;;;;6271108;28;20031;-66
2022/05/26 08:07:51;;;;;;;0.40;0.40;;;21.30;53.90;;;;;;6270924;28;20174;-66
2022/05/26 08:10:52;;;;;;;0.25;0.20;;;21.30;53.90;;;;;;6271120;28;20021;-67
2022/05/26 08:13:53;;;;;;;0.20;0.20;;;21.30;53.90;;;;;;6270847;28;20021;-66
2022/05/26 08:16:53;;;;;;;0.43;0.43;;;21.30;53.90;;;;;;6269574;28;20028;-66
2022/05/26 08:19:54;;;;;;;0.30;0.30;;;21.30;53.90;;;;;;6270821;28;20051;-66
2022/05/26 08:22:55;;;;;;;0.75;0.40;;;21.30;53.90;;;;;;6270056;28;20041;-66
2022/05/26 08:25:56;;;;;;;0.50;0.28;;;21.30;53.90;;;;;;6270531;28;20021;-67
2022/05/26 08:28:57;;;;;;;0.30;0.30;;;21.30;53.90;;;;;;6269609;28;20028;-66
2022/05/26 08:31:58;;;;;;;0.20;0.20;;;21.30;53.90;;;;;;6270378;28;20025;-67
2022/05/26 08:35:01;;;;;;;0.25;0.25;;;21.30;53.90;;;;;;6270449;28;20079;-66
2022/05/26 08:38:01;;;;;;;0.60;0.30;;;21.30;53.90;;;;;;6270389;28;20079;-67
2022/05/26 08:41:03;;;;;;;0.30;0.30;;;21.30;53.90;;;;;;6270177;28;20049;-67
2022/05/26 08:44:34;;;;;;;0.45;0.30;;;21.30;53.90;;;;;;6270608;28;20069;-67
2022/05/26 08:47:54;;;;;;;0.40;0.40;;;21.30;53.90;;;;;;6269625;28;20025;-67
2022/05/26 08:50:57;;;;;;;0.45;0.40;;;21.30;53.90;;;;;;6268664;28;20033;-67
2022/05/26 08:53:59;;;;;;;0.50;0.40;;;21.30;53.90;;;;;;6268924;28;20108;-66
2022/05/26 08:57:02;;;;;;;0.20;0.20;;;21.30;53.90;;;;;;6269372;28;20033;-67
2022/05/26 09:00:03;;;;;;;0.77;0.40;;;21.20;53.80;;;;;;6270472;28;20039;-66
2022/05/26 09:03:23;;;;;;;0.47;0.32;;;21.30;53.90;;;;;;6268808;28;20102;-67
2022/05/26 09:06:23;;;;;;;0.30;0.30;;;21.30;53.90;;;;;;6270440;28;20078;-66
2022/05/26 09:12:58;;;;;;;0.30;0.30;;;21.20;53.80;;;;;;6270565;28;20033;-66
2022/05/26 09:16:01;;;;;;;0.47;0.40;;;21.30;53.90;;;;;;6270129;28;20021;-66
2022/05/26 09:19:22;;;;;;;0.30;0.30;;;21.30;53.90;;;;;;6268949;28;20021;-67
2022/05/26 09:22:29;;;;;;;0.38;0.38;;;21.30;53.90;;;;;;6269865;28;20025;-67
2022/05/26 09:25:37;;;;;;;0.20;0.20;;;21.30;53.90;;;;;;6270275;28;20173;-66
2022/05/26 09:28:44;;;;;;;0.20;0.20;;;21.30;53.90;;;;;;6270054;28;20470;-67
2022/05/26 09:31:49;;;;;;;0.20;0.20;;;21.30;53.90;;;;;;6270214;28;20052;-66
2022/05/26 09:35:10;;;;;;;0.47;0.30;;;21.20;53.80;;;;;;6270058;28;20032;-66
2022/05/26 09:38:18;;;;;;;0.30;0.25;;;21.20;53.80;;;;;;6274911;28;20041;-68
2022/05/26 09:41:18;;;;;;;0.20;0.20;;;21.20;53.80;;;;;;6261855;28;20147;-68
2022/05/26 09:44:28;;;;;;;0.20;0.20;;;21.30;53.90;;;;;;6271085;28;20033;-70
2022/05/26 09:47:53;;;;;;;0.20;0.20;;;21.30;53.90;;;;;;6273148;28;20021;-69
2022/05/26 09:51:05;;;;;;;0.20;0.20;;;21.20;53.80;;;;;;6287747;28;20070;-69
2022/05/26 09:54:42;;;;;;;0.45;0.30;;;21.30;53.90;;;;;;6275835;28;20029;-68
2022/05/26 09:57:43;;;;;;;0.28;0.28;;;21.30;53.90;;;;;;6245189;28;20025;-68
2022/05/26 10:00:47;;;;;;;0.40;0.40;;;21.20;53.90;;;;;;6271810;28;20424;-70
2022/05/26 10:04:20;;;;;;;0.50;0.38;;;21.20;53.90;;;;;;6272531;28;20512;-68
2022/05/26 10:07:27;;;;;;;2.03;0.30;;;21.20;53.90;;;;;;6272768;28;20386;-68
2022/05/26 10:10:41;;;;;;;0.60;0.40;;;21.20;53.80;;;;;;6271376;28;20029;-68
2022/05/26 10:14:01;;;;;;;0.10;0.10;;;21.20;53.90;;;;;;6272767;28;20096;-67
2022/05/26 10:17:19;;;;;;;0.50;0.30;;;21.20;53.90;;;;;;6272655;28;20498;-68
2022/05/26 10:20:34;;;;;;;0.20;0.20;;;21.20;53.80;;;;;;6271870;28;20390;-67
2022/05/26 10:23:52;;;;;;;0.20;0.20;;;21.20;53.90;;;;;;6271576;28;20478;-67
2022/05/26 10:27:06;;;;;;;0.30;0.30;;;21.20;53.90;;;;;;6270724;28;20025;-67
2022/05/26 10:30:09;;;;;;;0.20;0.20;;;21.20;53.80;;;;;;6272242;28;20159;-66
2022/05/26 10:33:25;;;;;;;0.60;0.40;;;21.20;53.80;;;;;;6247039;28;20029;-69
2022/05/26 10:36:29;;;;;;;486.95;19.05;;;21.20;53.80;;;;;;6247723;28;20072;-64
2022/05/26 10:39:35;;;;;;;601.63;36.55;;;21.40;55.10;;;;;;6247393;28;20052;-68
2022/05/26 10:42:47;;;;;;;330.90;16.73;;;21.40;54.50;;;;;;6247651;28;20026;-68
2022/05/26 10:45:51;;;;;;;155.18;10.90;;;21.40;54.10;;;;;;6245376;28;20028;-68
2022/05/26 10:49:07;;;;;;;1754.53;120.53;;;21.30;53.90;;;;;;6246868;28;20017;-70
2022/05/26 10:52:14;;;;;;;1251.18;99.03;;;21.50;54.50;;;;;;6247265;28;20124;-67
2022/05/26 10:55:21;;;;;;;1136.40;94.70;;;21.40;54.20;;;;;;6246916;28;20217;-67
2022/05/26 10:58:37;;;;;;;1095.47;86.85;;;21.40;54.10;;;;;;6246000;28;20029;-68
2022/05/26 11:01:52;;;;;;;790.35;54.50;;;21.40;54.10;;;;;;6245987;28;20033;-67
2022/05/26 11:05:27;;;;;;;497.27;35.28;;;21.40;54.10;;;;;;6246710;28;20095;-68
2022/05/26 11:08:48;;;;;;;362.88;26.73;;;21.30;54.30;;;;;;6245442;28;20045;-67
2022/05/26 11:11:52;;;;;;;304.40;23.75;;;21.40;54.40;;;;;;6246810;28;20152;-68
2022/05/26 11:18:27;;;;;;;;;;;21.30;54.20;;;;;;6247351;28;20037;-67
2022/05/26 11:21:28;;;;;;;183.02;17.60;;;21.30;54.10;;;;;;6245237;28;19908;-67
2022/05/26 11:24:30;;;;;;;185.27;19.38;;;21.30;54.10;;;;;;6246633;28;20095;-67
2022/05/26 11:27:50;;;;;;;171.93;16.05;;;21.30;54.30;;;;;;6245674;28;20027;-67
2022/05/26 11:37:52;;;;;;;116.15;10.90;;;21.40;54.00;;;;;;6247046;28;20423;-68
2022/05/26 11:41:03;;;;;;;100.60;10.20;;;21.40;53.90;;;;;;6246184;28;20048;-68
2022/05/26 11:44:10;;;;;;;87.85;10.70;;;21.50;54.10;;;;;;6245735;28;20025;-67
2022/05/26 11:47:31;;;;;;;75.15;9.68;;;21.50;53.90;;;;;;6246463;28;20017;-69
2022/05/26 11:50:54;;;;;;;66.85;9.20;;;21.50;54.10;;;;;;6257451;28;20052;-67
2022/05/26 11:53:56;;;;;;;77.75;9.15;;;21.50;54.10;;;;;;6270102;28;20122;-68
2022/05/26 11:56:57;;;;;;;71.95;8.15;;;21.40;54.00;;;;;;6270828;28;20031;-68
2022/05/26 12:00:20;;;;;;;50.92;7.60;;;21.40;54.00;;;;;;6269803;28;20385;-69
2022/05/26 12:03:23;;;;;;;55.28;7.55;;;21.40;54.00;;;;;;6270093;28;20044;-67
2022/05/26 12:06:37;;;;;;;74.85;7.88;;;21.40;54.00;;;;;;6270862;28;20120;-67
2022/05/26 12:09:52;;;;;;;41.58;6.43;;;21.40;54.10;;;;;;6269241;28;20071;-67
2022/05/26 12:13:27;;;;;;;43.97;6.68;;;21.40;54.10;;;;;;6270134;28;20029;-68
2022/05/26 12:16:29;;;;;;;42.72;5.97;;;21.40;54.10;;;;;;6270045;28;20025;-69
2022/05/26 12:19:43;;;;;;;36.85;6.18;;;21.40;54.10;;;;;;6270023;28;20501;-69
2022/05/26 12:22:49;;;;;;;44.10;6.75;;;21.40;54.10;;;;;;6267940;28;20529;-69
2022/05/26 12:26:22;;;;;;;38.03;6.63;;;21.40;54.10;;;;;;6267968;28;20419;-69
2022/05/26 12:29:47;;;;;;;35.13;6.28;;;21.40;54.10;;;;;;6269068;28;20032;-70
2022/05/26 12:32:52;;;;;;;36.38;5.50;;;21.40;54.10;;;;;;6269020;28;20646;-69
2022/05/26 12:36:19;;;;;;;31.75;4.75;;;21.40;54.10;;;;;;6267245;28;20033;-69
2022/05/26 12:39:43;;;;;;;28.25;4.43;;;21.40;54.10;;;;;;6268675;28;20029;-70
2022/05/26 12:43:11;;;;;;;28.58;4.95;;;21.40;54.10;;;;;;6248523;28;20037;-67
2022/05/26 12:46:29;;;;;;;25.50;4.60;;;21.40;54.30;;;;;;6244049;28;20021;-69
2022/05/26 12:49:39;;;;;;;22.23;4.40;;;21.40;55.00;;;;;;6250938;28;20074;-69
2022/05/26 12:52:42;;;;;;;18.52;4.50;;;21.40;51.90;;;;;;6284710;28;20032;-69
2022/05/26 12:55:53;;;;;;;30.88;4.30;;;21.50;51.20;;;;;;6268851;28;20098;-69
2022/05/26 12:58:59;;;;;;;29.95;5.00;;;21.60;50.70;;;;;;6268969;28;20036;-69
2022/05/26 13:01:59;;;;;;;18.90;3.75;;;21.70;50.20;;;;;;6268851;28;20033;-69
2022/05/26 13:05:02;;;;;;;15.13;3.97;;;21.80;49.90;;;;;;6268328;28;20429;-68
2022/05/26 13:08:04;;;;;;;19.25;4.07;;;21.90;49.60;;;;;;6268298;28;20103;-71
2022/05/26 13:11:06;;;;;;;16.85;3.53;;;22.00;49.30;;;;;;6271936;28;20021;-69
2022/05/26 13:14:15;;;;;;;15.18;3.47;;;22.00;49.20;;;;;;6271911;28;20044;-70
2022/05/26 13:17:19;;;;;;;15.95;3.15;;;22.10;49.20;;;;;;6272444;28;20024;-69
2022/05/26 13:20:30;;;;;;;13.95;3.60;;;22.10;49.00;;;;;;6271372;28;20017;-69
2022/05/26 13:23:31;;;;;;;18.92;3.90;;;22.10;49.00;;;;;;6272127;28;20033;-70
2022/05/26 13:26:32;;;;;;;11.18;2.63;;;22.10;48.80;;;;;;6272377;28;20044;-69
2022/05/26 13:29:36;;;;;;;14.38;3.15;;;22.10;48.70;;;;;;6272665;28;20024;-70
2022/05/26 13:35:58;;;;;;;15.00;3.30;;;22.20;48.60;;;;;;6271551;28;20029;-69
2022/05/26 13:39:05;;;;;;;12.65;3.13;;;22.10;48.50;;;;;;6266210;28;20029;-69
2022/05/26 13:42:06;;;;;;;8.55;2.65;;;22.20;48.60;;;;;;6271407;28;20103;-69
2022/05/26 13:45:31;;;;;;;9.07;2.70;;;22.20;48.50;;;;;;6271638;28;20028;-71
2022/05/26 13:48:42;;;;;;;12.63;2.53;;;22.10;48.20;;;;;;6271843;28;20021;-70
2022/05/26 13:51:47;;;;;;;14.00;2.72;;;22.10;48.20;;;;;;6260119;28;20025;-69
2022/05/26 13:54:54;;;;;;;10.88;2.30;;;22.10;48.20;;;;;;6246251;28;20091;-69
2022/05/26 13:57:58;;;;;;;9.15;2.30;;;22.20;48.10;;;;;;6246840;28;20032;-69
2022/05/26 14:01:11;;;;;;;9.27;2.17;;;22.20;48.10;;;;;;6249876;28;20029;-69
2022/05/26 14:04:30;;;;;;;6.55;2.08;;;22.20;48.00;;;;;;6270437;28;20021;-69
2022/05/26 14:07:34;;;;;;;6.63;1.90;;;22.20;48.60;;;;;;6262487;28;20121;-69
2022/05/26 14:10:52;;;;;;;4.78;1.42;;;22.20;47.80;;;;;;6262017;28;20112;-68
2022/05/26 14:13:52;;;;;;;5.45;1.80;;;22.20;47.80;;;;;;6262174;28;20033;-70
2022/05/26 14:16:53;;;;;;;9.52;2.28;;;22.30;47.80;;;;;;6247367;28;20403;-69
2022/05/26 14:20:24;;;;;;;5.43;1.98;;;22.20;47.60;;;;;;6260138;28;20107;-69
2022/05/26 14:23:25;;;;;;;6.40;1.73;;;22.30;47.60;;;;;;6271314;28;20032;-69
2022/05/26 14:26:45;;;;;;;5.93;2.00;;;22.30;47.50;;;;;;6270511;28;20025;-68
2022/05/26 14:29:50;;;;;;;6.18;1.90;;;22.30;47.50;;;;;;6271993;28;20021;-68
2022/05/26 14:32:51;;;;;;;5.35;1.80;;;22.30;47.20;;;;;;6271137;28;20029;-69
2022/05/26 14:35:51;;;;;;;4.25;1.63;;;22.30;47.20;;;;;;6271520;28;20032;-69
2022/05/26 14:38:52;;;;;;;6.78;1.50;;;22.30;47.20;;;;;;6270452;28;20371;-68
2022/05/26 14:41:55;;;;;;;7.60;1.83;;;22.30;47.20;;;;;;6271093;28;20130;-68
2022/05/26 14:44:56;;;;;;;4.70;1.52;;;22.30;47.20;;;;;;6270053;28;20032;-68
2022/05/26 14:47:58;;;;;;;8.95;2.47;;;22.30;47.00;;;;;;6271690;28;20054;-68
2022/05/26 14:50:59;;;;;;;3.20;1.30;;;22.30;47.00;;;;;;6270150;28;20265;-69
2022/05/26 14:57:20;;;;;;;6.88;1.50;;;22.30;47.00;;;;;;6246448;28;20061;-70
2022/05/26 15:00:24;;;;;;;3.97;1.77;;;22.40;47.00;;;;;;6245373;28;20024;-69
2022/05/26 15:03:25;;;;;;;2.40;1.00;;;22.30;47.00;;;;;;6246342;28;20033;-68
2022/05/26 15:06:32;;;;;;;2.78;1.33;;;22.30;46.90;;;;;;6246421;28;20111;-68
2022/05/26 15:09:33;;;;;;;3.78;1.42;;;22.30;46.80;;;;;;6245975;28;20029;-68
2022/05/26 15:12:34;;;;;;;6.75;1.63;;;22.40;46.90;;;;;;6245605;28;20083;-68
2022/05/26 15:15:35;;;;;;;2.80;1.10;;;22.30;46.70;;;;;;6270552;28;20021;-68
2022/05/26 15:18:37;;;;;;;5.10;1.40;;;22.40;46.80;;;;;;6270612;28;20430;-69
2022/05/26 15:21:37;;;;;;;4.70;1.13;;;22.40;46.60;;;;;;6269247;28;20060;-68
2022/05/26 15:24:39;;;;;;;4.07;1.55;;;22.40;46.70;;;;;;6268212;28;20594;-69
2022/05/26 15:27:40;;;;;;;2.25;0.90;;;22.40;46.70;;;;;;6269609;28;20036;-69
2022/05/26 15:30:42;;;;;;;2.78;1.45;;;22.40;46.60;;;;;;6269529;28;20595;-69
2022/05/26 15:33:43;;;;;;;3.85;1.20;;;22.40;46.60;;;;;;6269634;28;20120;-69
2022/05/26 15:36:43;;;;;;;2.13;0.95;;;22.40;46.50;;;;;;6270141;28;20033;-70
2022/05/26 15:39:44;;;;;;;2.42;1.08;;;22.40;46.50;;;;;;6270497;28;20494;-70
2022/05/26 15:42:44;;;;;;;1.70;0.90;;;22.40;46.50;;;;;;6270259;28;20029;-70
2022/05/26 15:45:46;;;;;;;4.63;1.45;;;22.40;46.50;;;;;;6267873;28;20025;-70
2022/05/26 15:48:46;;;;;;;2.17;1.20;;;22.40;46.40;;;;;;6268560;28;20470;-71
2022/05/26 15:51:47;;;;;;;4.47;0.80;;;22.40;46.30;;;;;;6268443;28;20029;-70
2022/05/26 15:54:48;;;;;;;2.05;0.98;;;22.40;46.30;;;;;;6243920;28;20075;-71
2022/05/26 15:57:48;;;;;;;1.90;0.80;;;22.40;46.40;;;;;;6244951;28;20113;-69
2022/05/26 16:00:50;;;;;;;2.42;0.90;;;22.40;46.40;;;;;;6242254;28;20087;-72
2022/05/26 16:03:51;;;;;;;2.55;0.90;;;22.40;46.30;;;;;;6272570;28;20048;-71
2022/05/26 16:06:53;;;;;;;2.42;0.90;;;22.40;46.20;;;;;;6269466;28;20021;-72
2022/05/26 16:09:54;;;;;;;3.08;0.85;;;22.40;46.20;;;;;;5375468;28;10000723;-69
2022/05/26 16:12:55;;;;;;;2.67;0.90;;;22.40;46.20;;;;;;6243699;28;20028;-71
2022/05/26 16:15:56;;;;;;;2.65;1.00;;;22.40;46.20;;;;;;5364388;28;10000935;-70
2022/05/26 16:18:56;;;;;;;1.90;0.76;;;22.40;46.20;;;;;;5369591;28;10001734;-71
2022/05/26 16:21:58;;;;;;;1.65;0.70;;;22.40;46.10;;;;;;6266071;28;20029;-70
2022/05/26 16:24:59;;;;;;;2.50;0.90;;;22.40;46.10;;;;;;6266229;28;20040;-72
2022/05/26 16:28:10;;;;;;;1.40;0.67;;;22.40;46.00;;;;;;5750530;28;10000920;-71
2022/05/26 16:31:11;;;;;;;1.30;0.60;;;22.40;46.10;;;;;;6240656;28;20545;-71
2022/05/26 16:34:11;;;;;;;1.88;0.77;;;22.40;46.00;;;;;;6242946;28;20071;-71
2022/05/26 16:37:12;;;;;;;2.55;0.77;;;22.40;46.20;;;;;;6234342;28;20107;-70
2022/05/26 16:40:13;;;;;;;2.05;0.70;;;22.40;46.00;;;;;;6266717;28;20037;-71
2022/05/26 16:43:13;;;;;;;1.67;0.75;;;22.40;46.00;;;;;;6253980;28;20116;-71
2022/05/26 16:46:14;;;;;;;2.95;0.80;;;22.40;46.00;;;;;;6266613;28;20016;-70
2022/05/26 16:49:15;;;;;;;3.60;0.70;;;22.40;45.90;;;;;;6265336;28;20028;-71
2022/05/26 16:52:16;;;;;;;2.10;0.90;;;22.40;45.90;;;;;;6238910;28;20379;-71
2022/05/26 16:55:19;;;;;;;2.42;0.70;;;22.40;45.90;;;;;;6242403;28;20026;-72
2022/05/26 16:58:20;;;;;;;1.60;0.60;;;22.50;46.00;;;;;;6240610;28;20033;-70